sensor_id;sensor_type;location;lat;lon;timestamp;temperature;humidity
10149;DHT22;5115;50.920;6.376;2023-04-06T00:01:33;4.30;99.90
10149;DHT22;5115;50.920;6.376;2023-04-06T00:03:59;4.30;99.90
10149;DHT22;5115;50.920;6.376;2023-04-06T00:06:24;4.30;99.90
10149;DHT22;5115;50.920;6.376;2023-04-06T00:08:50;4.30;99.90
10149;DHT22;5115;50.920;6.376;2023-04-06T00:11:15;4.30;99.90
10149;DHT22;5115;50.920;6.376;2023-04-06T00:13:42;4.50;99.90
10149;DHT22;5115;50.920;6.376;2023-04-06T00:16:08;4.20;99.90
10149;DHT22;5115;50.920;6.376;2023-04-06T00:18:33;4.20;99.90
10149;DHT22;5115;50.920;6.376;2023-04-06T00:20:59;4.10;99.90
10149;DHT22;5115;50.920;6.376;2023-04-06T00:23:24;4.00;99.90
10149;DHT22;5115;50.920;6.376;2023-04-06T00:25:50;3.90;99.90
10149;DHT22;5115;50.920;6.376;2023-04-06T00:28:16;3.80;99.90
10149;DHT22;5115;50.920;6.376;2023-04-06T00:30:41;3.70;99.90
10149;DHT22;5115;50.920;6.376;2023-04-06T00:33:07;3.70;99.90
10149;DHT22;5115;50.920;6.376;2023-04-06T00:35:32;3.80;99.90
10149;DHT22;5115;50.920;6.376;2023-04-06T00:37:58;3.80;99.90
10149;DHT22;5115;50.920;6.376;2023-04-06T00:40:24;3.80;99.90
10149;DHT22;5115;50.920;6.376;2023-04-06T00:42:49;3.80;99.90
10149;DHT22;5115;50.920;6.376;2023-04-06T00:45:15;3.80;99.90
10149;DHT22;5115;50.920;6.376;2023-04-06T00:47:41;3.80;99.90
10149;DHT22;5115;50.920;6.376;2023-04-06T00:50:07;3.70;99.90
10149;DHT22;5115;50.920;6.376;2023-04-06T00:52:33;3.70;99.90
10149;DHT22;5115;50.920;6.376;2023-04-06T00:54:59;3.50;99.90
10149;DHT22;5115;50.920;6.376;2023-04-06T00:57:25;3.40;99.90
10149;DHT22;5115;50.920;6.376;2023-04-06T00:59:52;3.20;99.90
10149;DHT22;5115;50.920;6.376;2023-04-06T01:02:18;3.10;99.90
10149;DHT22;5115;50.920;6.376;2023-04-06T01:04:44;3.00;99.90
10149;DHT22;5115;50.920;6.376;2023-04-06T01:07:09;3.00;99.90
10149;DHT22;5115;50.920;6.376;2023-04-06T01:09:35;3.10;99.90
10149;DHT22;5115;50.920;6.376;2023-04-06T01:12:00;3.20;99.90
10149;DHT22;5115;50.920;6.376;2023-04-06T01:14:26;3.30;99.90
10149;DHT22;5115;50.920;6.376;2023-04-06T01:16:52;2.50;99.90
10149;DHT22;5115;50.920;6.376;2023-04-06T01:19:18;3.40;99.90
10149;DHT22;5115;50.920;6.376;2023-04-06T01:21:43;3.40;99.90
10149;DHT22;5115;50.920;6.376;2023-04-06T01:24:09;3.30;99.90
10149;DHT22;5115;50.920;6.376;2023-04-06T01:26:36;3.20;99.90
10149;DHT22;5115;50.920;6.376;2023-04-06T01:29:02;3.20;99.90
10149;DHT22;5115;50.920;6.376;2023-04-06T01:31:29;3.20;99.90
10149;DHT22;5115;50.920;6.376;2023-04-06T01:33:54;3.30;99.90
10149;DHT22;5115;50.920;6.376;2023-04-06T01:36:21;2.30;99.90
10149;DHT22;5115;50.920;6.376;2023-04-06T01:38:46;3.40;99.90
10149;DHT22;5115;50.920;6.376;2023-04-06T01:41:12;3.40;99.90
10149;DHT22;5115;50.920;6.376;2023-04-06T01:43:38;3.40;99.90
10149;DHT22;5115;50.920;6.376;2023-04-06T01:46:04;3.40;99.90
10149;DHT22;5115;50.920;6.376;2023-04-06T01:48:29;3.40;99.90
10149;DHT22;5115;50.920;6.376;2023-04-06T01:50:55;3.40;99.90
10149;DHT22;5115;50.920;6.376;2023-04-06T01:53:21;3.30;99.90
10149;DHT22;5115;50.920;6.376;2023-04-06T01:55:47;3.30;99.90
10149;DHT22;5115;50.920;6.376;2023-04-06T01:58:13;3.30;99.90
10149;DHT22;5115;50.920;6.376;2023-04-06T02:00:39;3.30;99.90
10149;DHT22;5115;50.920;6.376;2023-04-06T02:03:05;3.30;99.90
10149;DHT22;5115;50.920;6.376;2023-04-06T02:05:32;3.20;99.90
10149;DHT22;5115;50.920;6.376;2023-04-06T02:08:05;3.10;99.90
10149;DHT22;5115;50.920;6.376;2023-04-06T02:10:32;3.00;99.90
10149;DHT22;5115;50.920;6.376;2023-04-06T02:12:57;3.10;99.90
10149;DHT22;5115;50.920;6.376;2023-04-06T02:15:23;3.10;99.90
10149;DHT22;5115;50.920;6.376;2023-04-06T02:17:49;3.20;99.90
10149;DHT22;5115;50.920;6.376;2023-04-06T02:20:14;3.20;99.90
10149;DHT22;5115;50.920;6.376;2023-04-06T02:22:40;3.10;99.90
10149;DHT22;5115;50.920;6.376;2023-04-06T02:25:06;3.20;99.90
10149;DHT22;5115;50.920;6.376;2023-04-06T02:27:31;3.20;99.90
10149;DHT22;5115;50.920;6.376;2023-04-06T02:29:57;3.10;99.90
10149;DHT22;5115;50.920;6.376;2023-04-06T02:32:23;3.10;99.90
10149;DHT22;5115;50.920;6.376;2023-04-06T02:34:48;3.10;99.90
10149;DHT22;5115;50.920;6.376;2023-04-06T02:37:14;3.10;99.90
10149;DHT22;5115;50.920;6.376;2023-04-06T02:39:41;3.10;99.90
10149;DHT22;5115;50.920;6.376;2023-04-06T02:42:06;3.10;99.90
10149;DHT22;5115;50.920;6.376;2023-04-06T02:44:34;3.10;99.90
10149;DHT22;5115;50.920;6.376;2023-04-06T02:46:59;3.10;99.90
10149;DHT22;5115;50.920;6.376;2023-04-06T02:49:25;3.10;99.90
10149;DHT22;5115;50.920;6.376;2023-04-06T02:51:50;3.10;99.90
10149;DHT22;5115;50.920;6.376;2023-04-06T02:54:16;3.10;99.90
10149;DHT22;5115;50.920;6.376;2023-04-06T02:56:41;3.10;99.90
10149;DHT22;5115;50.920;6.376;2023-04-06T02:59:07;3.00;99.90
10149;DHT22;5115;50.920;6.376;2023-04-06T03:01:32;2.60;99.90
10149;DHT22;5115;50.920;6.376;2023-04-06T03:03:58;3.90;99.90
10149;DHT22;5115;50.920;6.376;2023-04-06T03:06:23;2.90;99.90
10149;DHT22;5115;50.920;6.376;2023-04-06T03:08:49;2.90;99.90
10149;DHT22;5115;50.920;6.376;2023-04-06T03:11:15;2.90;99.90
10149;DHT22;5115;50.920;6.376;2023-04-06T03:13:40;2.90;99.90
10149;DHT22;5115;50.920;6.376;2023-04-06T03:16:06;2.90;99.90
10149;DHT22;5115;50.920;6.376;2023-04-06T03:18:32;2.90;99.90
10149;DHT22;5115;50.920;6.376;2023-04-06T03:20:57;2.90;99.90
10149;DHT22;5115;50.920;6.376;2023-04-06T03:23:23;3.00;99.90
10149;DHT22;5115;50.920;6.376;2023-04-06T03:25:49;2.90;99.90
10149;DHT22;5115;50.920;6.376;2023-04-06T03:28:15;2.90;99.90
10149;DHT22;5115;50.920;6.376;2023-04-06T03:30:41;2.80;99.90
10149;DHT22;5115;50.920;6.376;2023-04-06T03:33:07;2.80;99.90
10149;DHT22;5115;50.920;6.376;2023-04-06T03:35:32;2.80;99.90
10149;DHT22;5115;50.920;6.376;2023-04-06T03:37:58;2.60;99.90
10149;DHT22;5115;50.920;6.376;2023-04-06T03:40:23;2.60;99.90
10149;DHT22;5115;50.920;6.376;2023-04-06T03:42:49;2.50;99.90
10149;DHT22;5115;50.920;6.376;2023-04-06T03:45:14;2.50;99.90
10149;DHT22;5115;50.920;6.376;2023-04-06T03:47:40;2.40;99.90
10149;DHT22;5115;50.920;6.376;2023-04-06T03:50:06;2.40;99.90
10149;DHT22;5115;50.920;6.376;2023-04-06T03:52:31;2.50;99.90
10149;DHT22;5115;50.920;6.376;2023-04-06T03:54:57;2.40;99.90
10149;DHT22;5115;50.920;6.376;2023-04-06T03:57:22;2.50;99.90
10149;DHT22;5115;50.920;6.376;2023-04-06T03:59:48;2.50;99.90
10149;DHT22;5115;50.920;6.376;2023-04-06T04:02:13;2.50;99.90
10149;DHT22;5115;50.920;6.376;2023-04-06T04:04:39;2.60;99.90
10149;DHT22;5115;50.920;6.376;2023-04-06T04:07:05;2.50;99.90
10149;DHT22;5115;50.920;6.376;2023-04-06T04:09:31;2.40;99.90
10149;DHT22;5115;50.920;6.376;2023-04-06T04:11:56;2.50;99.90
10149;DHT22;5115;50.920;6.376;2023-04-06T04:14:22;2.40;99.90
10149;DHT22;5115;50.920;6.376;2023-04-06T04:16:47;2.40;99.90
10149;DHT22;5115;50.920;6.376;2023-04-06T04:19:13;2.50;99.90
10149;DHT22;5115;50.920;6.376;2023-04-06T04:21:43;2.60;99.90
10149;DHT22;5115;50.920;6.376;2023-04-06T04:24:10;2.60;99.90
10149;DHT22;5115;50.920;6.376;2023-04-06T04:26:35;2.60;99.90
10149;DHT22;5115;50.920;6.376;2023-04-06T04:29:01;2.50;99.90
10149;DHT22;5115;50.920;6.376;2023-04-06T04:31:26;2.60;99.90
10149;DHT22;5115;50.920;6.376;2023-04-06T04:33:52;2.60;99.90
10149;DHT22;5115;50.920;6.376;2023-04-06T04:36:17;2.70;99.90
10149;DHT22;5115;50.920;6.376;2023-04-06T04:38:43;2.60;99.90
10149;DHT22;5115;50.920;6.376;2023-04-06T04:41:08;2.60;99.90
10149;DHT22;5115;50.920;6.376;2023-04-06T04:43:34;2.40;99.90
10149;DHT22;5115;50.920;6.376;2023-04-06T04:45:59;2.40;99.90
10149;DHT22;5115;50.920;6.376;2023-04-06T04:48:25;2.40;99.90
10149;DHT22;5115;50.920;6.376;2023-04-06T04:50:51;2.50;99.90
10149;DHT22;5115;50.920;6.376;2023-04-06T04:53:16;2.50;99.90
10149;DHT22;5115;50.920;6.376;2023-04-06T04:55:42;2.60;99.90
10149;DHT22;5115;50.920;6.376;2023-04-06T04:58:07;2.60;99.90
10149;DHT22;5115;50.920;6.376;2023-04-06T05:00:34;2.80;99.90
10149;DHT22;5115;50.920;6.376;2023-04-06T05:03:00;2.90;99.90
10149;DHT22;5115;50.920;6.376;2023-04-06T05:05:25;3.00;99.90
10149;DHT22;5115;50.920;6.376;2023-04-06T05:07:51;3.00;99.90
10149;DHT22;5115;50.920;6.376;2023-04-06T05:10:16;3.10;99.90
10149;DHT22;5115;50.920;6.376;2023-04-06T05:12:42;3.20;99.90
10149;DHT22;5115;50.920;6.376;2023-04-06T05:15:08;3.20;99.90
10149;DHT22;5115;50.920;6.376;2023-04-06T05:17:34;3.20;99.90
10149;DHT22;5115;50.920;6.376;2023-04-06T05:20:00;3.20;99.90
10149;DHT22;5115;50.920;6.376;2023-04-06T05:22:25;3.30;99.90
10149;DHT22;5115;50.920;6.376;2023-04-06T05:24:51;3.30;99.90
10149;DHT22;5115;50.920;6.376;2023-04-06T05:27:17;3.30;99.90
10149;DHT22;5115;50.920;6.376;2023-04-06T05:29:42;3.40;99.90
10149;DHT22;5115;50.920;6.376;2023-04-06T05:32:08;3.40;99.90
10149;DHT22;5115;50.920;6.376;2023-04-06T05:34:33;3.40;99.90
10149;DHT22;5115;50.920;6.376;2023-04-06T05:36:59;3.50;99.90
10149;DHT22;5115;50.920;6.376;2023-04-06T05:39:24;3.60;99.90
10149;DHT22;5115;50.920;6.376;2023-04-06T05:41:50;3.70;99.90
10149;DHT22;5115;50.920;6.376;2023-04-06T05:44:16;3.80;99.90
10149;DHT22;5115;50.920;6.376;2023-04-06T05:46:42;3.80;99.90
10149;DHT22;5115;50.920;6.376;2023-04-06T05:49:07;3.80;99.90
10149;DHT22;5115;50.920;6.376;2023-04-06T05:51:33;4.00;99.90
10149;DHT22;5115;50.920;6.376;2023-04-06T05:53:59;3.40;99.90
10149;DHT22;5115;50.920;6.376;2023-04-06T05:56:24;4.20;99.90
10149;DHT22;5115;50.920;6.376;2023-04-06T05:58:50;4.30;99.90
10149;DHT22;5115;50.920;6.376;2023-04-06T06:01:16;4.20;99.90
10149;DHT22;5115;50.920;6.376;2023-04-06T06:03:41;4.30;99.90
10149;DHT22;5115;50.920;6.376;2023-04-06T06:06:07;4.40;99.90
10149;DHT22;5115;50.920;6.376;2023-04-06T06:08:32;4.60;99.90
10149;DHT22;5115;50.920;6.376;2023-04-06T06:10:58;4.80;99.90
10149;DHT22;5115;50.920;6.376;2023-04-06T06:13:24;4.90;99.90
10149;DHT22;5115;50.920;6.376;2023-04-06T06:15:50;5.00;99.90
10149;DHT22;5115;50.920;6.376;2023-04-06T06:18:15;5.20;99.90
10149;DHT22;5115;50.920;6.376;2023-04-06T06:20:41;5.30;99.90
10149;DHT22;5115;50.920;6.376;2023-04-06T06:23:06;5.40;99.90
10149;DHT22;5115;50.920;6.376;2023-04-06T06:25:32;5.50;99.90
10149;DHT22;5115;50.920;6.376;2023-04-06T06:27:58;5.50;99.90
10149;DHT22;5115;50.920;6.376;2023-04-06T06:30:24;5.60;99.90
10149;DHT22;5115;50.920;6.376;2023-04-06T06:32:50;5.70;99.90
10149;DHT22;5115;50.920;6.376;2023-04-06T06:35:16;5.90;99.90
10149;DHT22;5115;50.920;6.376;2023-04-06T06:37:42;6.10;99.90
10149;DHT22;5115;50.920;6.376;2023-04-06T06:40:09;6.30;99.90
10149;DHT22;5115;50.920;6.376;2023-04-06T06:42:35;6.50;99.90
10149;DHT22;5115;50.920;6.376;2023-04-06T06:45:01;6.70;99.90
10149;DHT22;5115;50.920;6.376;2023-04-06T06:47:26;7.00;99.90
10149;DHT22;5115;50.920;6.376;2023-04-06T06:49:52;7.30;99.90
10149;DHT22;5115;50.920;6.376;2023-04-06T06:52:17;7.50;99.90
10149;DHT22;5115;50.920;6.376;2023-04-06T06:54:44;7.70;99.90
10149;DHT22;5115;50.920;6.376;2023-04-06T06:57:09;7.80;99.90
10149;DHT22;5115;50.920;6.376;2023-04-06T06:59:35;8.70;99.90
10149;DHT22;5115;50.920;6.376;2023-04-06T07:02:00;8.00;99.90
10149;DHT22;5115;50.920;6.376;2023-04-06T07:04:26;8.30;99.90
10149;DHT22;5115;50.920;6.376;2023-04-06T07:06:52;8.40;99.90
10149;DHT22;5115;50.920;6.376;2023-04-06T07:09:18;8.70;99.90
10149;DHT22;5115;50.920;6.376;2023-04-06T07:11:43;8.90;99.90
10149;DHT22;5115;50.920;6.376;2023-04-06T07:14:09;9.30;99.90
10149;DHT22;5115;50.920;6.376;2023-04-06T07:16:35;9.60;99.90
10149;DHT22;5115;50.920;6.376;2023-04-06T07:19:00;9.90;99.90
10149;DHT22;5115;50.920;6.376;2023-04-06T07:21:26;10.30;99.90
10149;DHT22;5115;50.920;6.376;2023-04-06T07:23:52;10.50;99.90
10149;DHT22;5115;50.920;6.376;2023-04-06T07:26:17;10.50;99.90
10149;DHT22;5115;50.920;6.376;2023-04-06T07:28:43;10.80;99.90
10149;DHT22;5115;50.920;6.376;2023-04-06T07:31:08;11.00;99.90
10149;DHT22;5115;50.920;6.376;2023-04-06T07:33:34;11.00;99.90
10149;DHT22;5115;50.920;6.376;2023-04-06T07:36:00;11.00;99.90
10149;DHT22;5115;50.920;6.376;2023-04-06T07:38:25;10.90;99.90
10149;DHT22;5115;50.920;6.376;2023-04-06T07:40:51;11.00;99.90
10149;DHT22;5115;50.920;6.376;2023-04-06T07:43:17;11.00;99.90
10149;DHT22;5115;50.920;6.376;2023-04-06T07:45:42;11.00;99.90
10149;DHT22;5115;50.920;6.376;2023-04-06T07:48:08;11.00;99.90
10149;DHT22;5115;50.920;6.376;2023-04-06T07:50:33;10.90;99.90
10149;DHT22;5115;50.920;6.376;2023-04-06T07:52:59;11.00;99.90
10149;DHT22;5115;50.920;6.376;2023-04-06T07:55:25;11.20;99.90
10149;DHT22;5115;50.920;6.376;2023-04-06T07:57:51;11.40;99.90
10149;DHT22;5115;50.920;6.376;2023-04-06T08:00:17;11.80;99.90
10149;DHT22;5115;50.920;6.376;2023-04-06T08:02:42;12.00;99.90
10149;DHT22;5115;50.920;6.376;2023-04-06T08:05:08;12.20;99.90
10149;DHT22;5115;50.920;6.376;2023-04-06T08:07:34;12.30;99.90
10149;DHT22;5115;50.920;6.376;2023-04-06T08:10:01;12.40;99.90
10149;DHT22;5115;50.920;6.376;2023-04-06T08:12:26;12.40;99.90
10149;DHT22;5115;50.920;6.376;2023-04-06T08:14:52;12.40;99.90
10149;DHT22;5115;50.920;6.376;2023-04-06T08:17:17;12.40;99.90
10149;DHT22;5115;50.920;6.376;2023-04-06T08:19:43;12.10;99.90
10149;DHT22;5115;50.920;6.376;2023-04-06T08:22:10;11.90;99.90
10149;DHT22;5115;50.920;6.376;2023-04-06T08:24:35;11.70;99.90
10149;DHT22;5115;50.920;6.376;2023-04-06T08:27:01;11.40;99.90
10149;DHT22;5115;50.920;6.376;2023-04-06T08:29:26;11.20;99.90
10149;DHT22;5115;50.920;6.376;2023-04-06T08:31:52;11.20;99.90
10149;DHT22;5115;50.920;6.376;2023-04-06T08:34:18;11.30;99.90
10149;DHT22;5115;50.920;6.376;2023-04-06T08:36:43;11.40;99.90
10149;DHT22;5115;50.920;6.376;2023-04-06T08:39:09;11.30;99.90
10149;DHT22;5115;50.920;6.376;2023-04-06T08:41:35;11.90;99.90
10149;DHT22;5115;50.920;6.376;2023-04-06T08:44:02;11.50;99.90
10149;DHT22;5115;50.920;6.376;2023-04-06T08:46:29;11.50;99.90
10149;DHT22;5115;50.920;6.376;2023-04-06T08:49:00;11.30;99.90
10149;DHT22;5115;50.920;6.376;2023-04-06T08:51:27;11.50;99.90
10149;DHT22;5115;50.920;6.376;2023-04-06T08:53:57;11.60;99.90
10149;DHT22;5115;50.920;6.376;2023-04-06T08:56:24;11.80;99.90
10149;DHT22;5115;50.920;6.376;2023-04-06T08:58:50;11.90;99.90
10149;DHT22;5115;50.920;6.376;2023-04-06T09:01:20;11.80;99.90
10149;DHT22;5115;50.920;6.376;2023-04-06T09:03:46;12.00;99.90
10149;DHT22;5115;50.920;6.376;2023-04-06T09:06:14;12.00;99.90
10149;DHT22;5115;50.920;6.376;2023-04-06T09:08:40;12.00;99.90
10149;DHT22;5115;50.920;6.376;2023-04-06T09:11:07;12.20;99.90
10149;DHT22;5115;50.920;6.376;2023-04-06T09:13:48;12.30;99.90
10149;DHT22;5115;50.920;6.376;2023-04-06T09:16:14;12.40;99.90
10149;DHT22;5115;50.920;6.376;2023-04-06T09:18:39;12.50;99.90
10149;DHT22;5115;50.920;6.376;2023-04-06T09:21:06;12.50;99.90
10149;DHT22;5115;50.920;6.376;2023-04-06T09:23:32;12.60;99.90
10149;DHT22;5115;50.920;6.376;2023-04-06T09:26:09;12.60;99.90
10149;DHT22;5115;50.920;6.376;2023-04-06T09:28:49;12.60;99.90
10149;DHT22;5115;50.920;6.376;2023-04-06T09:31:16;12.80;99.90
10149;DHT22;5115;50.920;6.376;2023-04-06T09:33:44;12.90;99.90
10149;DHT22;5115;50.920;6.376;2023-04-06T09:36:11;12.90;99.90
10149;DHT22;5115;50.920;6.376;2023-04-06T09:38:52;12.90;99.90
10149;DHT22;5115;50.920;6.376;2023-04-06T09:41:26;13.10;99.90
10149;DHT22;5115;50.920;6.376;2023-04-06T09:44:01;13.40;99.90
10149;DHT22;5115;50.920;6.376;2023-04-06T09:46:27;13.50;99.90
10149;DHT22;5115;50.920;6.376;2023-04-06T09:48:56;13.60;99.90
10149;DHT22;5115;50.920;6.376;2023-04-06T09:51:22;13.60;99.90
10149;DHT22;5115;50.920;6.376;2023-04-06T09:53:52;13.70;99.90
10149;DHT22;5115;50.920;6.376;2023-04-06T09:56:22;13.80;99.90
10149;DHT22;5115;50.920;6.376;2023-04-06T09:58:53;13.80;99.90
10149;DHT22;5115;50.920;6.376;2023-04-06T10:01:22;13.90;99.90
10149;DHT22;5115;50.920;6.376;2023-04-06T10:04:55;13.90;99.90
10149;DHT22;5115;50.920;6.376;2023-04-06T10:06:53;13.80;99.90
10149;DHT22;5115;50.920;6.376;2023-04-06T10:09:24;13.90;99.90
10149;DHT22;5115;50.920;6.376;2023-04-06T10:11:51;14.00;99.90
10149;DHT22;5115;50.920;6.376;2023-04-06T10:14:17;14.00;99.90
10149;DHT22;5115;50.920;6.376;2023-04-06T10:16:43;14.10;99.60
10149;DHT22;5115;50.920;6.376;2023-04-06T10:19:17;14.10;99.90
10149;DHT22;5115;50.920;6.376;2023-04-06T10:21:45;14.20;99.60
10149;DHT22;5115;50.920;6.376;2023-04-06T10:24:13;14.00;99.50
10149;DHT22;5115;50.920;6.376;2023-04-06T10:26:39;14.10;99.40
10149;DHT22;5115;50.920;6.376;2023-04-06T10:29:05;14.10;99.40
10149;DHT22;5115;50.920;6.376;2023-04-06T10:31:31;14.10;99.70
10149;DHT22;5115;50.920;6.376;2023-04-06T10:33:59;14.20;99.50
10149;DHT22;5115;50.920;6.376;2023-04-06T10:36:27;14.20;99.60
10149;DHT22;5115;50.920;6.376;2023-04-06T10:39:01;14.10;98.90
10149;DHT22;5115;50.920;6.376;2023-04-06T10:41:35;14.00;99.50
10149;DHT22;5115;50.920;6.376;2023-04-06T10:44:01;14.00;99.60
10149;DHT22;5115;50.920;6.376;2023-04-06T10:46:29;14.10;99.60
10149;DHT22;5115;50.920;6.376;2023-04-06T10:48:55;14.20;99.90
10149;DHT22;5115;50.920;6.376;2023-04-06T10:51:25;14.30;99.80
10149;DHT22;5115;50.920;6.376;2023-04-06T10:53:55;14.70;99.90
10149;DHT22;5115;50.920;6.376;2023-04-06T10:56:24;15.00;99.60
10149;DHT22;5115;50.920;6.376;2023-04-06T10:58:53;15.20;99.70
10149;DHT22;5115;50.920;6.376;2023-04-06T11:01:22;15.50;99.20
10149;DHT22;5115;50.920;6.376;2023-04-06T11:03:53;15.30;99.20
10149;DHT22;5115;50.920;6.376;2023-04-06T11:06:23;15.40;99.60
10149;DHT22;5115;50.920;6.376;2023-04-06T11:08:50;15.60;99.80
10149;DHT22;5115;50.920;6.376;2023-04-06T11:11:18;15.60;99.90
10149;DHT22;5115;50.920;6.376;2023-04-06T11:13:45;15.50;99.90
10149;DHT22;5115;50.920;6.376;2023-04-06T11:18:53;15.50;99.70
10149;DHT22;5115;50.920;6.376;2023-04-06T11:21:30;15.30;99.90
10149;DHT22;5115;50.920;6.376;2023-04-06T11:24:11;15.10;99.90
10149;DHT22;5115;50.920;6.376;2023-04-06T11:26:44;14.80;99.90
10149;DHT22;5115;50.920;6.376;2023-04-06T11:29:12;14.70;99.90
10149;DHT22;5115;50.920;6.376;2023-04-06T11:31:52;14.60;99.90
10149;DHT22;5115;50.920;6.376;2023-04-06T11:34:23;14.50;99.90
10149;DHT22;5115;50.920;6.376;2023-04-06T11:36:54;14.30;99.90
10149;DHT22;5115;50.920;6.376;2023-04-06T11:39:22;14.40;99.90
10149;DHT22;5115;50.920;6.376;2023-04-06T11:41:50;14.40;99.90
10149;DHT22;5115;50.920;6.376;2023-04-06T11:44:26;14.30;99.90
10149;DHT22;5115;50.920;6.376;2023-04-06T11:46:53;14.20;99.90
10149;DHT22;5115;50.920;6.376;2023-04-06T11:49:18;14.10;99.90
10149;DHT22;5115;50.920;6.376;2023-04-06T11:51:46;14.10;99.90
10149;DHT22;5115;50.920;6.376;2023-04-06T11:54:11;14.00;99.90
10149;DHT22;5115;50.920;6.376;2023-04-06T11:56:38;13.80;99.90
10149;DHT22;5115;50.920;6.376;2023-04-06T11:59:03;13.80;99.90
10149;DHT22;5115;50.920;6.376;2023-04-06T12:01:29;13.70;99.90
10149;DHT22;5115;50.920;6.376;2023-04-06T12:03:55;13.60;99.90
10149;DHT22;5115;50.920;6.376;2023-04-06T12:06:21;13.50;99.90
10149;DHT22;5115;50.920;6.376;2023-04-06T12:08:46;13.50;99.90
10149;DHT22;5115;50.920;6.376;2023-04-06T12:11:12;13.30;99.90
10149;DHT22;5115;50.920;6.376;2023-04-06T12:13:38;13.30;99.90
10149;DHT22;5115;50.920;6.376;2023-04-06T12:16:04;13.40;99.90
10149;DHT22;5115;50.920;6.376;2023-04-06T12:18:30;13.50;99.90
10149;DHT22;5115;50.920;6.376;2023-04-06T12:20:55;13.40;99.90
10149;DHT22;5115;50.920;6.376;2023-04-06T12:23:21;13.30;99.90
10149;DHT22;5115;50.920;6.376;2023-04-06T12:25:46;13.00;99.90
10149;DHT22;5115;50.920;6.376;2023-04-06T12:28:12;12.70;99.90
10149;DHT22;5115;50.920;6.376;2023-04-06T12:30:38;12.50;99.90
10149;DHT22;5115;50.920;6.376;2023-04-06T12:33:04;12.40;99.90
10149;DHT22;5115;50.920;6.376;2023-04-06T12:35:33;12.50;99.90
10149;DHT22;5115;50.920;6.376;2023-04-06T12:37:59;12.40;99.90
10149;DHT22;5115;50.920;6.376;2023-04-06T12:40:24;12.30;99.90
10149;DHT22;5115;50.920;6.376;2023-04-06T12:42:50;12.40;99.90
10149;DHT22;5115;50.920;6.376;2023-04-06T12:45:16;12.20;99.90
10149;DHT22;5115;50.920;6.376;2023-04-06T12:47:41;12.20;99.90
10149;DHT22;5115;50.920;6.376;2023-04-06T12:50:07;11.50;99.90
10149;DHT22;5115;50.920;6.376;2023-04-06T12:52:33;11.80;99.90
10149;DHT22;5115;50.920;6.376;2023-04-06T12:55:01;11.80;99.90
10149;DHT22;5115;50.920;6.376;2023-04-06T12:57:27;11.70;99.90
10149;DHT22;5115;50.920;6.376;2023-04-06T12:59:52;11.60;99.90
10149;DHT22;5115;50.920;6.376;2023-04-06T13:02:18;11.50;99.90
10149;DHT22;5115;50.920;6.376;2023-04-06T13:04:45;11.50;99.90
10149;DHT22;5115;50.920;6.376;2023-04-06T13:07:11;11.60;99.90
10149;DHT22;5115;50.920;6.376;2023-04-06T13:09:37;11.70;99.90
10149;DHT22;5115;50.920;6.376;2023-04-06T13:12:02;11.60;99.90
10149;DHT22;5115;50.920;6.376;2023-04-06T13:14:28;11.60;99.90
10149;DHT22;5115;50.920;6.376;2023-04-06T13:16:54;11.50;99.90
10149;DHT22;5115;50.920;6.376;2023-04-06T13:19:19;11.50;99.90
10149;DHT22;5115;50.920;6.376;2023-04-06T13:21:45;11.50;99.90
10149;DHT22;5115;50.920;6.376;2023-04-06T13:24:11;11.40;99.90
10149;DHT22;5115;50.920;6.376;2023-04-06T13:26:36;11.40;99.90
10149;DHT22;5115;50.920;6.376;2023-04-06T13:29:02;11.30;99.90
10149;DHT22;5115;50.920;6.376;2023-04-06T13:31:28;11.30;99.90
10149;DHT22;5115;50.920;6.376;2023-04-06T13:33:54;11.40;99.90
10149;DHT22;5115;50.920;6.376;2023-04-06T13:36:19;11.30;99.90
10149;DHT22;5115;50.920;6.376;2023-04-06T13:38:45;11.30;99.90
10149;DHT22;5115;50.920;6.376;2023-04-06T13:41:21;11.20;99.90
10149;DHT22;5115;50.920;6.376;2023-04-06T13:43:47;11.20;99.90
10149;DHT22;5115;50.920;6.376;2023-04-06T13:46:12;11.10;99.90
10149;DHT22;5115;50.920;6.376;2023-04-06T13:48:38;11.00;99.90
10149;DHT22;5115;50.920;6.376;2023-04-06T13:51:11;11.00;99.90
10149;DHT22;5115;50.920;6.376;2023-04-06T13:53:37;10.90;99.90
10149;DHT22;5115;50.920;6.376;2023-04-06T13:56:02;10.70;99.90
10149;DHT22;5115;50.920;6.376;2023-04-06T13:58:28;10.80;99.90
10149;DHT22;5115;50.920;6.376;2023-04-06T14:00:53;10.80;99.90
10149;DHT22;5115;50.920;6.376;2023-04-06T14:03:20;10.80;99.90
10149;DHT22;5115;50.920;6.376;2023-04-06T14:05:46;10.70;99.90
10149;DHT22;5115;50.920;6.376;2023-04-06T14:08:12;10.70;99.90
10149;DHT22;5115;50.920;6.376;2023-04-06T14:10:39;10.70;99.90
10149;DHT22;5115;50.920;6.376;2023-04-06T14:13:05;10.60;99.90
10149;DHT22;5115;50.920;6.376;2023-04-06T14:15:31;10.60;99.90
10149;DHT22;5115;50.920;6.376;2023-04-06T14:17:57;10.60;99.90
10149;DHT22;5115;50.920;6.376;2023-04-06T14:20:22;10.70;99.90
10149;DHT22;5115;50.920;6.376;2023-04-06T14:22:48;10.80;99.90
10149;DHT22;5115;50.920;6.376;2023-04-06T14:25:14;10.80;99.90
10149;DHT22;5115;50.920;6.376;2023-04-06T14:27:41;10.80;99.90
10149;DHT22;5115;50.920;6.376;2023-04-06T14:30:08;10.90;99.90
10149;DHT22;5115;50.920;6.376;2023-04-06T14:32:33;10.90;99.90
10149;DHT22;5115;50.920;6.376;2023-04-06T14:34:59;10.80;99.90
10149;DHT22;5115;50.920;6.376;2023-04-06T14:37:25;10.80;99.90
10149;DHT22;5115;50.920;6.376;2023-04-06T14:39:51;10.70;99.90
10149;DHT22;5115;50.920;6.376;2023-04-06T14:42:17;10.80;99.90
10149;DHT22;5115;50.920;6.376;2023-04-06T14:44:42;10.70;99.90
10149;DHT22;5115;50.920;6.376;2023-04-06T14:47:10;10.70;99.90
10149;DHT22;5115;50.920;6.376;2023-04-06T14:49:36;10.70;99.90
10149;DHT22;5115;50.920;6.376;2023-04-06T14:52:01;10.70;99.90
10149;DHT22;5115;50.920;6.376;2023-04-06T14:54:27;10.70;99.90
10149;DHT22;5115;50.920;6.376;2023-04-06T14:56:52;10.70;99.90
10149;DHT22;5115;50.920;6.376;2023-04-06T14:59:18;10.70;99.90
10149;DHT22;5115;50.920;6.376;2023-04-06T15:01:43;10.70;99.90
10149;DHT22;5115;50.920;6.376;2023-04-06T15:04:09;10.60;99.90
10149;DHT22;5115;50.920;6.376;2023-04-06T15:06:35;10.60;99.90
10149;DHT22;5115;50.920;6.376;2023-04-06T15:09:00;10.60;99.90
10149;DHT22;5115;50.920;6.376;2023-04-06T15:11:26;10.60;99.90
10149;DHT22;5115;50.920;6.376;2023-04-06T15:13:51;10.50;99.90
10149;DHT22;5115;50.920;6.376;2023-04-06T15:16:17;10.40;99.90
10149;DHT22;5115;50.920;6.376;2023-04-06T15:18:42;10.30;99.90
10149;DHT22;5115;50.920;6.376;2023-04-06T15:21:08;10.30;99.90
10149;DHT22;5115;50.920;6.376;2023-04-06T15:23:34;10.30;99.90
10149;DHT22;5115;50.920;6.376;2023-04-06T15:26:00;10.20;99.90
10149;DHT22;5115;50.920;6.376;2023-04-06T15:28:26;10.10;99.90
10149;DHT22;5115;50.920;6.376;2023-04-06T15:30:52;10.10;99.90
10149;DHT22;5115;50.920;6.376;2023-04-06T15:33:19;9.90;99.90
10149;DHT22;5115;50.920;6.376;2023-04-06T15:35:46;9.90;99.90
10149;DHT22;5115;50.920;6.376;2023-04-06T15:38:11;9.90;99.90
10149;DHT22;5115;50.920;6.376;2023-04-06T15:40:45;9.90;99.90
10149;DHT22;5115;50.920;6.376;2023-04-06T15:43:11;9.80;99.90
10149;DHT22;5115;50.920;6.376;2023-04-06T15:45:37;9.80;99.90
10149;DHT22;5115;50.920;6.376;2023-04-06T15:48:03;9.80;99.90
10149;DHT22;5115;50.920;6.376;2023-04-06T15:50:29;9.80;99.90
10149;DHT22;5115;50.920;6.376;2023-04-06T15:52:55;9.80;99.90